Time;durP1;ratioP1;P1;durP2;ratioP2;P2;SDS_P1;SDS_P2;PMS_P1;PMS_P2;Temp;Humidity;BMP_temperature;BMP_pressure;BME280_temperature;BME280_humidity;BME280_pressure;Samples;Min_cycle;Max_cycle;Signal;HPM_P1;HPM_P2
2023/01/27 00:00:22;;;;;;;17.83;13.95;;;;;;;0.41;68.51;92996.47;4976767;28;20089;-77
2023/01/27 00:02:48;;;;;;;19.30;14.98;;;;;;;0.36;68.45;92992.84;4979565;28;20092;-78
2023/01/27 00:05:15;;;;;;;18.63;13.45;;;;;;;0.49;68.34;93006.41;4979657;28;20486;-78
2023/01/27 00:07:44;;;;;;;20.08;13.73;;;;;;;0.35;68.07;92999.13;4979145;28;20030;-79
2023/01/27 00:10:14;;;;;;;18.20;13.60;;;;;;;0.54;67.93;93011.59;4979472;28;20042;-78
2023/01/27 00:15:25;;;;;;;25.77;16.42;;;;;;;0.48;67.96;92992.53;4976609;28;20450;-78
2023/01/27 00:17:51;;;;;;;19.65;14.20;;;;;;;0.45;67.44;92987.81;4976784;28;20474;-77
2023/01/27 00:24:34;;;;;;;18.80;13.52;;;;;;;0.51;67.57;92994.59;4980291;28;20042;-79
2023/01/27 00:25:49;;;;;;;18.95;14.25;;;;;;;0.42;67.66;92964.81;4978032;28;20644;-77
2023/01/27 00:28:22;;;;;;;22.02;15.50;;;;;;;0.48;67.74;92976.84;4978599;28;20038;-76
2023/01/27 00:30:50;;;;;;;18.90;13.82;;;;;;;0.53;67.54;92973.41;4958871;28;20490;-78
2023/01/27 00:33:28;;;;;;;19.75;13.05;;;;;;;0.49;67.15;92956.69;4975987;28;20026;-77
2023/01/27 00:36:03;;;;;;;17.40;12.10;;;;;;;0.56;67.21;92989.34;4976844;28;20098;-77
2023/01/27 00:38:31;;;;;;;15.50;12.45;;;;;;;0.63;66.56;92983.81;4975480;28;20034;-77
2023/01/27 00:41:18;;;;;;;18.33;12.20;;;;;;;0.49;66.89;92957.47;4978676;28;20034;-78
2023/01/27 00:43:54;;;;;;;15.07;11.50;;;;;;;0.45;66.86;92972.13;4977002;28;20501;-77
2023/01/27 00:46:21;;;;;;;16.75;13.70;;;;;;;0.24;67.48;92963.63;4975224;28;20038;-77
2023/01/27 00:48:47;;;;;;;15.25;11.50;;;;;;;0.60;67.17;92986.94;4977533;28;20030;-77
2023/01/27 00:51:13;;;;;;;16.63;10.95;;;;;;;0.45;66.82;92977.34;4978520;28;20037;-77
2023/01/27 00:53:39;;;;;;;15.57;10.57;;;;;;;0.53;67.31;92983.88;4980487;28;20089;-78
2023/01/27 00:56:05;;;;;;;13.85;10.90;;;;;;;0.53;67.19;92989.88;4977200;28;20038;-76
2023/01/27 00:58:31;;;;;;;14.38;10.52;;;;;;;0.62;67.07;92983.03;4979008;28;20034;-77
2023/01/27 01:00:58;;;;;;;15.77;10.23;;;;;;;0.60;66.93;92992.19;4974181;28;20435;-78
2023/01/27 01:03:25;;;;;;;14.27;10.27;;;;;;;0.49;66.76;92960.09;4958145;28;20117;-78
2023/01/27 01:05:51;;;;;;;13.52;10.05;;;;;;;0.65;66.65;92990.31;4954812;28;20046;-77
2023/01/27 01:08:17;;;;;;;15.45;10.40;;;;;;;0.67;66.55;92979.59;4958764;28;20045;-78
2023/01/27 01:10:42;;;;;;;16.45;10.93;;;;;;;0.57;66.16;92969.97;4959953;28;20506;-79
2023/01/27 01:13:10;;;;;;;14.85;10.25;;;;;;;0.58;66.53;92982.00;4959269;28;20046;-78
2023/01/27 01:15:37;;;;;;;16.05;10.80;;;;;;;0.67;66.53;92988.22;4956675;28;20500;-77
2023/01/27 01:18:04;;;;;;;12.98;9.45;;;;;;;0.59;66.27;92967.88;4959315;28;20027;-77
2023/01/27 01:20:29;;;;;;;13.75;9.82;;;;;;;0.63;66.32;92994.28;4959944;28;20165;-78
2023/01/27 01:22:55;;;;;;;14.00;10.45;;;;;;;0.57;66.10;92959.50;4959695;28;20031;-78
2023/01/27 01:25:21;;;;;;;15.63;10.48;;;;;;;0.79;65.31;92980.81;4960013;28;20065;-79
2023/01/27 01:27:46;;;;;;;12.48;10.20;;;;;;;0.64;65.79;92959.97;4958262;28;20573;-78
2023/01/27 01:30:12;;;;;;;15.38;10.88;;;;;;;0.80;65.65;92974.53;4959307;28;20038;-77
2023/01/27 01:32:37;;;;;;;14.55;10.00;;;;;;;0.67;65.51;92975.16;4956641;28;20049;-78
2023/01/27 01:35:03;;;;;;;13.63;10.75;;;;;;;0.65;65.32;92960.75;4956389;28;20038;-78
2023/01/27 01:37:28;;;;;;;14.25;9.88;;;;;;;0.71;65.71;92984.00;4959193;28;20031;-75
2023/01/27 01:39:54;;;;;;;13.95;10.35;;;;;;;0.67;65.93;92967.28;4958434;28;20054;-78
2023/01/27 01:42:19;;;;;;;15.98;10.90;;;;;;;0.73;65.90;92987.16;4960427;28;20513;-77
2023/01/27 01:44:44;;;;;;;13.98;10.63;;;;;;;0.63;65.94;92975.97;4953801;28;20042;-78
2023/01/27 01:47:15;;;;;;;12.85;10.02;;;;;;;0.73;65.98;93004.69;4959570;28;20053;-78
2023/01/27 01:49:43;;;;;;;15.75;10.45;;;;;;;0.74;66.01;92998.41;4957185;28;20030;-76
2023/01/27 01:52:14;;;;;;;12.68;10.30;;;;;;;0.78;65.95;92992.34;4960183;28;20034;-77
2023/01/27 01:54:49;;;;;;;14.77;10.95;;;;;;;0.76;65.98;92973.50;4958783;28;20023;-77
2023/01/27 01:57:16;;;;;;;14.65;11.13;;;;;;;0.64;65.86;92952.13;4960562;28;20022;-76
2023/01/27 01:59:48;;;;;;;16.00;12.05;;;;;;;0.79;66.00;92972.97;4957075;28;20102;-77
2023/01/27 02:02:17;;;;;;;14.75;11.25;;;;;;;0.62;65.91;92946.41;4975512;28;20050;-78
2023/01/27 02:05:15;;;;;;;14.48;10.05;;;;;;;0.77;66.00;92953.34;4977173;28;20526;-77
2023/01/27 02:07:56;;;;;;;17.67;12.32;;;;;;;0.67;67.07;92961.28;4971737;28;20054;-76
2023/01/27 02:10:21;;;;;;;15.80;10.50;;;;;;;0.64;66.41;92944.28;4952178;28;20057;-78
2023/01/27 02:12:47;;;;;;;16.25;10.75;;;;;;;0.52;66.74;92937.81;4977829;28;20487;-77
2023/01/27 02:15:12;;;;;;;14.27;9.70;;;;;;;0.63;66.93;92941.94;4962984;28;20540;-78
2023/01/27 02:17:38;;;;;;;13.75;9.85;;;;;;;0.62;66.96;92935.94;4977068;28;20640;-77
2023/01/27 02:20:16;;;;;;;13.20;10.40;;;;;;;0.72;66.46;92937.69;4974420;28;20093;-77
2023/01/27 02:22:47;;;;;;;14.05;10.07;;;;;;;0.72;66.35;92930.63;4978294;28;20115;-78
2023/01/27 02:25:29;;;;;;;15.50;10.98;;;;;;;0.63;66.48;92911.31;4978019;28;20042;-78
2023/01/27 02:27:55;;;;;;;13.50;10.52;;;;;;;0.62;66.60;92928.06;4979458;28;20066;-76
2023/01/27 02:30:21;;;;;;;14.82;10.57;;;;;;;0.49;67.10;92920.06;4978711;28;20105;-77
2023/01/27 02:32:46;;;;;;;14.18;9.82;;;;;;;0.56;67.10;92923.94;4976485;28;20589;-78
2023/01/27 02:35:20;;;;;;;12.98;9.65;;;;;;;0.62;67.02;92935.16;4973293;28;20046;-77
2023/01/27 02:37:47;;;;;;;15.02;10.35;;;;;;;0.61;66.76;92915.25;4978611;28;20062;-77
2023/01/27 02:40:13;;;;;;;10.77;8.43;;;;;;;0.52;66.82;92901.19;4959503;28;20047;-76
2023/01/27 02:42:38;;;;;;;12.43;8.95;;;;;;;0.54;67.18;92901.72;4975790;28;20507;-77
2023/01/27 02:45:04;;;;;;;14.40;9.43;;;;;;;0.65;66.86;92919.66;4977295;28;20037;-77
2023/01/27 02:47:29;;;;;;;13.35;9.65;;;;;;;0.71;66.39;92923.03;4959314;28;20527;-78
2023/01/27 02:49:55;;;;;;;11.82;8.85;;;;;;;0.62;66.81;92925.47;4975824;28;20732;-78
2023/01/27 02:52:22;;;;;;;13.95;10.10;;;;;;;0.75;66.81;92945.78;4977978;28;20038;-77
2023/01/27 02:54:47;;;;;;;11.23;9.02;;;;;;;0.80;66.46;92937.09;4979539;28;20041;-75
2023/01/27 02:57:13;;;;;;;9.77;8.38;;;;;;;0.77;65.77;92919.34;4983567;28;20030;-78
2023/01/27 02:59:38;;;;;;;11.18;9.27;;;;;;;0.87;65.50;92936.78;4981525;28;20457;-77
2023/01/27 03:02:04;;;;;;;11.68;8.95;;;;;;;0.75;66.49;92930.06;4983638;28;20108;-77
2023/01/27 03:04:29;;;;;;;12.02;9.88;;;;;;;0.69;66.41;92920.69;4966504;28;20384;-77
2023/01/27 03:06:54;;;;;;;11.80;9.35;;;;;;;0.53;66.77;92900.94;4983229;28;20041;-77
2023/01/27 03:09:20;;;;;;;12.07;9.05;;;;;;;0.69;66.88;92915.44;4984649;28;20030;-77
2023/01/27 03:19:57;;;;;;;10.18;8.75;;;;;;;0.71;65.99;92886.41;4984533;28;20096;-78
2023/01/27 03:22:22;;;;;;;13.25;9.82;;;;;;;0.65;65.71;92871.78;4983516;28;20042;-77
2023/01/27 03:24:48;;;;;;;12.43;9.15;;;;;;;0.85;66.11;92891.78;4982896;28;20030;-78
2023/01/27 03:27:13;;;;;;;12.20;9.70;;;;;;;0.78;66.09;92881.63;4985022;28;20485;-77
2023/01/27 03:29:57;;;;;;;12.35;8.43;;;;;;;0.71;66.26;92881.94;4984743;28;20542;-77
2023/01/27 03:32:24;;;;;;;10.90;8.75;;;;;;;0.66;66.28;92868.13;4983478;28;20125;-77
2023/01/27 03:34:49;;;;;;;13.95;9.40;;;;;;;0.75;65.59;92869.88;4983664;28;20038;-77
2023/01/27 03:48:11;;;;;;;12.60;8.68;;;;;;;0.78;66.36;92861.50;4983052;28;20377;-78
2023/01/27 03:50:41;;;;;;;12.43;9.45;;;;;;;0.85;66.18;92853.28;4984893;28;20039;-77
2023/01/27 03:53:08;;;;;;;15.50;10.60;;;;;;;0.81;66.28;92865.38;4982555;28;20046;-77
2023/01/27 03:55:36;;;;;;;13.60;10.25;;;;;;;0.79;66.12;92865.66;4984088;28;20419;-77
2023/01/27 03:58:18;;;;;;;14.60;10.95;;;;;;;0.40;66.39;92817.06;4983631;28;20034;-77
2023/01/27 04:00:45;;;;;;;15.27;10.65;;;;;;;0.73;66.08;92843.22;4964940;28;20054;-78
2023/01/27 04:08:42;;;;;;;16.00;12.30;;;;;;;0.36;68.04;92890.06;4980393;28;20108;-77
2023/01/27 04:13:52;;;;;;;17.98;12.68;;;;;;;0.24;68.41;92887.78;4979380;28;20046;-78
2023/01/27 04:16:18;;;;;;;16.48;11.52;;;;;;;0.47;67.31;92917.72;4979891;28;20271;-78
2023/01/27 04:18:45;;;;;;;15.95;10.57;;;;;;;0.34;67.67;92907.88;4979787;28;20026;-77
2023/01/27 04:21:12;;;;;;;19.65;10.93;;;;;;;0.25;68.01;92914.72;4980943;28;20030;-77
2023/01/27 04:23:37;;;;;;;14.40;10.77;;;;;;;0.34;67.78;92905.25;4980058;28;20699;-77
2023/01/27 04:26:03;;;;;;;17.65;11.25;;;;;;;0.64;67.49;92928.56;4981206;28;20026;-77
2023/01/27 04:28:28;;;;;;;14.27;10.52;;;;;;;0.87;66.02;92931.56;4980183;28;20626;-75
2023/01/27 04:30:54;;;;;;;15.18;9.73;;;;;;;0.67;65.85;92906.31;4980958;28;20109;-76
2023/01/27 04:33:19;;;;;;;12.95;10.20;;;;;;;0.80;65.88;92929.25;4979441;28;20659;-77
2023/01/27 04:35:45;;;;;;;12.02;9.38;;;;;;;0.70;65.96;92932.72;4980751;28;20050;-79
2023/01/27 04:38:11;;;;;;;14.00;10.27;;;;;;;0.64;66.74;92936.41;4961620;28;20117;-77
2023/01/27 04:40:37;;;;;;;15.80;10.20;;;;;;;0.72;66.36;92941.09;4978047;28;20554;-78
2023/01/27 04:43:02;;;;;;;14.27;11.05;;;;;;;0.65;67.46;92956.31;4975640;28;20034;-77
2023/01/27 04:45:28;;;;;;;12.40;9.95;;;;;;;0.83;66.86;92967.19;4978094;28;20487;-76
2023/01/27 04:47:53;;;;;;;12.23;9.48;;;;;;;0.58;66.81;92940.16;4975875;28;20084;-78
2023/01/27 04:50:18;;;;;;;10.82;8.02;;;;;;;0.69;66.74;92930.41;4979766;28;20034;-76
2023/01/27 04:52:44;;;;;;;12.30;9.48;;;;;;;0.69;66.93;92952.09;4978532;28;20463;-76
2023/01/27 04:55:10;;;;;;;11.27;8.98;;;;;;;0.44;67.65;92964.56;4979874;28;20042;-77
2023/01/27 04:57:35;;;;;;;11.45;9.20;;;;;;;0.71;66.59;92954.44;4979194;28;20026;-77
2023/01/27 05:00:02;;;;;;;14.52;9.77;;;;;;;0.66;66.04;92931.72;4981232;28;20265;-78
2023/01/27 05:02:27;;;;;;;11.70;9.57;;;;;;;0.69;66.51;92954.69;4978257;28;20501;-77
2023/01/27 05:04:52;;;;;;;11.90;8.90;;;;;;;0.75;66.79;92956.25;4980535;28;20074;-77
2023/01/27 05:07:18;;;;;;;15.70;12.02;;;;;;;0.86;66.46;92966.63;4979272;28;20562;-77
2023/01/27 05:09:43;;;;;;;13.98;10.57;;;;;;;0.74;66.85;92965.13;4979648;28;20036;-78
2023/01/27 05:12:09;;;;;;;16.33;10.00;;;;;;;0.62;67.32;92946.41;4980139;28;20530;-78
2023/01/27 05:14:34;;;;;;;11.63;8.88;;;;;;;0.74;66.85;92931.13;4978872;28;20376;-78
2023/01/27 05:16:59;;;;;;;11.73;8.48;;;;;;;0.68;66.86;92919.16;4980206;28;20547;-79
2023/01/27 05:19:25;;;;;;;14.43;9.90;;;;;;;0.85;66.82;92951.97;4978798;28;20418;-78
2023/01/27 05:21:50;;;;;;;12.70;8.93;;;;;;;0.76;67.42;92951.78;4978020;28;20091;-78
2023/01/27 05:24:15;;;;;;;16.13;9.82;;;;;;;0.68;67.55;92944.53;4980476;28;20546;-79
2023/01/27 05:26:41;;;;;;;13.00;9.10;;;;;;;0.90;66.98;92937.03;4978220;28;20057;-78
2023/01/27 05:29:08;;;;;;;12.57;9.38;;;;;;;0.99;66.81;92947.69;4963140;28;20034;-77
2023/01/27 05:31:33;;;;;;;13.77;9.85;;;;;;;1.04;66.32;92934.53;4977724;28;20452;-78
2023/01/27 05:34:01;;;;;;;12.38;10.00;;;;;;;1.03;66.32;92927.78;4979547;28;20046;-78
2023/01/27 05:36:27;;;;;;;14.20;10.90;;;;;;;0.69;66.99;92899.00;4978132;28;20468;-78
2023/01/27 05:38:53;;;;;;;13.35;9.57;;;;;;;0.82;67.24;92929.75;4980286;28;20104;-77
2023/01/27 05:41:20;;;;;;;13.10;9.45;;;;;;;0.88;67.31;92925.28;4979067;28;20506;-78
2023/01/27 05:43:50;;;;;;;16.23;10.05;;;;;;;0.91;67.12;92924.72;4979418;28;20367;-78
2023/01/27 05:46:18;;;;;;;11.75;9.13;;;;;;;0.95;66.77;92923.09;4960764;28;20451;-78
2023/01/27 05:48:46;;;;;;;16.00;11.18;;;;;;;0.48;67.42;92877.44;4979891;28;20113;-77
2023/01/27 05:51:13;;;;;;;22.40;14.73;;;;;;;0.56;67.98;92900.38;4978939;28;20026;-79
2023/01/27 05:53:39;;;;;;;21.27;15.68;;;;;;;0.79;67.78;92925.84;4979684;28;20046;-77
2023/01/27 05:56:05;;;;;;;22.08;16.55;;;;;;;0.74;67.64;92922.50;4979138;28;20535;-78
2023/01/27 05:58:31;;;;;;;20.48;16.17;;;;;;;0.82;67.56;92934.22;4961400;28;20609;-78
2023/01/27 06:01:05;;;;;;;24.02;16.88;;;;;;;0.82;67.78;92940.22;4978773;28;20066;-78
2023/01/27 06:03:31;;;;;;;21.08;15.73;;;;;;;0.73;67.79;92932.19;4977631;28;20062;-77
2023/01/27 06:05:57;;;;;;;17.55;12.23;;;;;;;0.65;67.88;92919.66;4978521;28;20554;-78
2023/01/27 06:08:24;;;;;;;14.18;10.05;;;;;;;0.62;68.58;92917.59;4979603;28;20038;-79
2023/01/27 06:10:50;;;;;;;11.75;8.43;;;;;;;0.76;68.44;92921.16;4977730;28;20026;-78
2023/01/27 06:13:16;;;;;;;12.50;8.57;;;;;;;0.92;67.38;92923.66;4979704;28;20132;-78
2023/01/27 06:15:44;;;;;;;12.55;8.68;;;;;;;0.72;67.85;92914.13;4978937;28;20117;-76
2023/01/27 06:18:09;;;;;;;13.95;8.45;;;;;;;0.80;68.23;92929.25;4978126;28;20033;-74
2023/01/27 06:20:35;;;;;;;11.60;8.38;;;;;;;0.83;68.33;92936.56;4978468;28;20406;-78
2023/01/27 06:23:00;;;;;;;14.23;9.63;;;;;;;0.82;67.92;92923.75;4977600;28;20042;-79
2023/01/27 06:25:26;;;;;;;15.68;9.73;;;;;;;0.93;68.17;92940.94;4977793;28;20529;-78
2023/01/27 06:27:55;;;;;;;16.35;9.70;;;;;;;0.67;67.90;92908.94;4976492;28;20482;-79
2023/01/27 06:30:22;;;;;;;14.02;10.43;;;;;;;1.00;68.07;92952.66;4978614;28;20542;-78
2023/01/27 06:32:47;;;;;;;14.10;10.18;;;;;;;1.05;67.50;92944.75;4959715;28;20678;-77
2023/01/27 06:35:13;;;;;;;9.63;7.18;;;;;;;0.61;66.92;92904.78;4978387;28;20473;-78
2023/01/27 06:37:38;;;;;;;10.90;7.90;;;;;;;0.73;67.69;92921.72;4978137;28;20041;-78
2023/01/27 06:40:04;;;;;;;10.52;8.00;;;;;;;0.79;68.01;92943.38;4978308;28;20057;-77
2023/01/27 06:42:30;;;;;;;11.38;8.73;;;;;;;0.65;67.97;92930.13;4977854;28;20061;-77
2023/01/27 06:44:55;;;;;;;14.10;8.25;;;;;;;0.94;67.67;92951.13;4978164;28;20134;-78
2023/01/27 06:47:21;;;;;;;11.95;8.80;;;;;;;0.68;67.87;92928.81;4978412;28;20459;-78
2023/01/27 06:49:46;;;;;;;11.00;8.07;;;;;;;0.83;68.20;92946.25;4977752;28;20121;-77
2023/01/27 06:52:11;;;;;;;12.98;8.75;;;;;;;0.58;68.41;92942.75;4977137;28;20051;-78
2023/01/27 06:54:37;;;;;;;13.77;10.20;;;;;;;0.52;68.94;92954.31;4976367;28;20049;-78
2023/01/27 06:57:02;;;;;;;11.88;8.88;;;;;;;0.80;68.38;92958.81;4980434;28;20089;-78
2023/01/27 06:59:28;;;;;;;10.30;9.00;;;;;;;0.67;68.18;92954.22;4977192;28;20042;-78
2023/01/27 07:01:53;;;;;;;12.05;9.63;;;;;;;0.72;68.93;92961.25;4979175;28;20137;-78
2023/01/27 07:04:19;;;;;;;13.05;9.43;;;;;;;0.91;68.41;92970.00;4977513;28;20050;-78
2023/01/27 07:06:44;;;;;;;17.08;12.18;;;;;;;0.82;67.96;92944.69;4972785;28;20516;-78
2023/01/27 07:09:10;;;;;;;11.38;9.98;;;;;;;0.78;68.39;92975.88;4975662;28;20441;-77
2023/01/27 07:11:35;;;;;;;13.32;10.65;;;;;;;0.71;67.99;92952.59;4973036;28;20537;-78
2023/01/27 07:14:01;;;;;;;17.10;11.10;;;;;;;0.83;67.67;92946.25;4973059;28;20597;-79
2023/01/27 07:16:27;;;;;;;13.88;10.23;;;;;;;0.82;67.61;92963.78;4974033;28;20100;-79
2023/01/27 07:18:52;;;;;;;11.48;8.80;;;;;;;0.86;67.83;92971.88;4971689;28;20412;-79
2023/01/27 07:21:18;;;;;;;12.93;9.43;;;;;;;0.94;67.75;92963.44;4977704;28;20034;-78
2023/01/27 07:23:43;;;;;;;11.65;8.88;;;;;;;1.04;67.16;92958.91;4978034;28;20046;-78
2023/01/27 07:26:08;;;;;;;11.50;7.72;;;;;;;0.93;67.49;92946.97;4975774;28;20100;-78
2023/01/27 07:28:34;;;;;;;13.20;9.93;;;;;;;1.01;67.57;92945.56;4977437;28;20557;-77
2023/01/27 07:31:01;;;;;;;16.63;9.63;;;;;;;0.99;67.86;92960.78;4975785;28;20046;-77
2023/01/27 07:33:26;;;;;;;10.48;7.63;;;;;;;0.95;67.29;92939.59;4977464;28;20415;-78
2023/01/27 07:35:52;;;;;;;11.27;7.80;;;;;;;0.89;67.32;92945.91;4975040;28;20042;-77
2023/01/27 07:38:17;;;;;;;9.13;6.03;;;;;;;1.04;66.70;92965.97;4975740;28;20499;-78
2023/01/27 07:40:42;;;;;;;15.45;9.07;;;;;;;1.06;65.93;92961.25;4976687;28;20049;-77
2023/01/27 07:43:10;;;;;;;9.15;6.75;;;;;;;0.99;65.93;92966.00;4979181;28;20065;-77
2023/01/27 07:45:35;;;;;;;9.98;6.20;;;;;;;0.76;67.38;92946.56;4979060;28;20691;-77
2023/01/27 07:48:06;;;;;;;8.60;6.72;;;;;;;0.83;67.19;92954.88;4981391;28;20439;-78
2023/01/27 07:50:32;;;;;;;7.65;6.82;;;;;;;0.72;66.87;92946.31;4979791;28;20037;-77
2023/01/27 07:53:02;;;;;;;11.63;7.63;;;;;;;0.91;67.17;92974.47;4979440;28;20038;-77
2023/01/27 07:55:29;;;;;;;11.00;6.78;;;;;;;1.00;66.50;92970.97;4977098;28;20034;-76
2023/01/27 07:57:56;;;;;;;8.98;7.00;;;;;;;0.92;67.05;92970.78;4977930;28;20047;-77
2023/01/27 08:00:22;;;;;;;10.98;8.32;;;;;;;0.92;67.29;92970.78;4976714;28;20420;-78
2023/01/27 08:02:51;;;;;;;12.70;8.35;;;;;;;1.05;67.17;92970.94;4973274;28;20039;-77
2023/01/27 08:05:17;;;;;;;18.02;9.30;;;;;;;1.05;66.38;92964.91;4974837;28;20065;-77
2023/01/27 08:07:42;;;;;;;16.02;10.13;;;;;;;1.01;67.32;92969.94;4959058;28;20514;-79
2023/01/27 08:10:09;;;;;;;14.38;8.82;;;;;;;0.90;67.38;92952.72;4974452;28;20507;-77
2023/01/27 08:12:34;;;;;;;13.18;11.77;;;;;;;1.10;66.99;92938.69;4974436;28;20038;-77
2023/01/27 08:14:59;;;;;;;11.40;8.40;;;;;;;1.18;66.82;92948.59;4977131;28;20435;-78
2023/01/27 08:17:25;;;;;;;9.68;7.90;;;;;;;1.20;67.29;92960.34;4975910;28;20562;-78
2023/01/27 08:19:51;;;;;;;10.57;7.03;;;;;;;1.32;66.83;92961.81;4969803;28;20507;-78
2023/01/27 08:22:20;;;;;;;12.05;7.20;;;;;;;1.20;67.38;92962.19;4977237;28;20406;-77
2023/01/27 08:24:46;;;;;;;11.27;6.90;;;;;;;1.19;66.94;92950.13;4975511;28;20030;-78
2023/01/27 08:27:11;;;;;;;9.20;7.35;;;;;;;1.30;65.86;92961.31;4960138;28;21205;-78
2023/01/27 08:29:36;;;;;;;11.00;7.00;;;;;;;1.39;64.64;92965.66;4969474;28;20145;-78
2023/01/27 08:32:02;;;;;;;10.32;6.60;;;;;;;1.28;64.99;92960.81;4972418;28;20065;-78
2023/01/27 08:34:28;;;;;;;8.57;6.20;;;;;;;1.31;64.62;92963.66;4976559;28;20414;-77
2023/01/27 08:36:53;;;;;;;9.73;6.90;;;;;;;1.45;64.61;92972.44;4959672;28;20089;-77
2023/01/27 08:39:18;;;;;;;8.80;6.95;;;;;;;1.20;64.90;92943.84;4976065;28;20022;-77
2023/01/27 08:41:44;;;;;;;11.38;8.20;;;;;;;1.36;65.07;92981.94;4977257;28;20037;-78
2023/01/27 08:44:09;;;;;;;13.85;7.80;;;;;;;1.10;64.98;92938.69;4978783;28;20283;-77
2023/01/27 08:46:35;;;;;;;12.40;8.73;;;;;;;1.52;64.07;92988.59;4953422;28;20161;-78
2023/01/27 08:49:00;;;;;;;12.57;8.20;;;;;;;1.20;64.19;92951.69;4977274;28;20768;-77
2023/01/27 08:51:25;;;;;;;13.02;9.82;;;;;;;1.25;64.44;92972.59;4977428;28;20018;-77
2023/01/27 08:53:51;;;;;;;11.90;7.85;;;;;;;0.99;63.86;92934.59;4972189;28;20042;-76
2023/01/27 08:56:16;;;;;;;12.68;8.10;;;;;;;1.10;63.59;92970.13;4978814;28;20151;-78
2023/01/27 08:58:42;;;;;;;12.50;8.40;;;;;;;0.86;64.50;92980.50;4961250;28;20053;-77
2023/01/27 09:01:08;;;;;;;8.93;5.57;;;;;;;0.76;64.00;92965.66;4978295;28;20088;-77
2023/01/27 09:03:34;;;;;;;9.80;6.32;;;;;;;0.88;65.09;92982.88;4961133;28;20031;-77
2023/01/27 09:06:00;;;;;;;8.82;6.55;;;;;;;0.88;64.92;92964.53;4976502;28;20065;-78
2023/01/27 09:08:26;;;;;;;14.55;9.63;;;;;;;0.98;64.82;92983.56;4961301;28;20554;-78
2023/01/27 09:10:51;;;;;;;15.15;7.78;;;;;;;0.99;65.01;92982.50;4977688;28;20030;-78
2023/01/27 09:13:18;;;;;;;7.75;6.45;;;;;;;0.90;65.39;92972.88;4974540;28;20295;-78
2023/01/27 09:15:43;;;;;;;6.68;5.20;;;;;;;0.95;64.74;92976.25;4975819;28;20032;-77
2023/01/27 09:18:09;;;;;;;8.13;5.15;;;;;;;0.95;65.63;92976.25;4979369;28;20026;-78
2023/01/27 09:20:38;;;;;;;8.35;5.50;;;;;;;0.93;65.46;92983.63;4977030;28;20049;-77
2023/01/27 09:23:04;;;;;;;9.02;5.90;;;;;;;0.84;65.84;92980.00;4979273;28;20065;-77
2023/01/27 09:25:30;;;;;;;10.55;6.57;;;;;;;0.87;66.44;92976.06;4979197;28;20034;-77
2023/01/27 09:27:56;;;;;;;7.53;5.63;;;;;;;0.79;66.80;92962.47;4975659;28;20069;-78
2023/01/27 09:30:23;;;;;;;12.77;7.22;;;;;;;0.86;66.58;92969.25;4977847;28;20117;-79
2023/01/27 09:32:49;;;;;;;9.73;6.85;;;;;;;0.69;66.14;92940.88;4966365;28;20050;-78
2023/01/27 09:35:15;;;;;;;8.65;7.07;;;;;;;0.75;67.00;92961.47;4973589;28;20026;-77
2023/01/27 09:37:46;;;;;;;9.32;6.82;;;;;;;0.54;67.39;92933.13;4975824;28;20031;-77
2023/01/27 09:40:30;;;;;;;11.07;8.02;;;;;;;0.63;67.68;92958.44;4975650;28;20043;-78
2023/01/27 09:43:07;;;;;;;12.98;9.70;;;;;;;0.64;68.00;92959.97;4973113;28;20042;-76
2023/01/27 09:46:05;;;;;;;15.73;9.27;;;;;;;0.67;68.21;92940.34;4973740;28;20026;-76
2023/01/27 09:48:44;;;;;;;14.27;9.10;;;;;;;0.78;68.36;92949.69;4965584;28;20133;-73
2023/01/27 09:51:21;;;;;;;14.15;10.10;;;;;;;0.82;68.43;92944.69;4971923;28;20094;-76
2023/01/27 09:54:12;;;;;;;15.77;10.05;;;;;;;0.73;68.38;92923.56;4976580;28;20045;-76
2023/01/27 09:56:40;;;;;;;11.85;8.55;;;;;;;0.77;68.44;92930.59;4975046;28;20034;-76
2023/01/27 09:59:14;;;;;;;10.70;7.82;;;;;;;0.50;68.80;92921.59;4976081;28;20061;-77
2023/01/27 10:01:45;;;;;;;13.45;7.68;;;;;;;0.64;69.02;92925.94;4974357;28;20336;-77
2023/01/27 10:04:29;;;;;;;14.52;9.00;;;;;;;0.62;69.00;92922.84;4975676;28;20081;-78
2023/01/27 10:07:13;;;;;;;20.40;10.80;;;;;;;0.63;69.16;92916.56;4972972;28;20565;-78
2023/01/27 10:09:56;;;;;;;11.80;9.23;;;;;;;0.60;69.64;92924.94;4969973;28;20409;-77
2023/01/27 10:12:28;;;;;;;9.65;7.15;;;;;;;0.61;70.14;92923.88;4973283;28;20101;-77
2023/01/27 10:15:15;;;;;;;9.50;6.90;;;;;;;0.58;69.85;92916.59;4952893;28;20073;-75
2023/01/27 10:17:56;;;;;;;14.27;8.80;;;;;;;0.64;69.67;92925.94;4974862;28;20057;-77
2023/01/27 10:20:31;;;;;;;10.07;7.90;;;;;;;0.40;70.44;92921.69;4956963;28;20246;-77
2023/01/27 10:23:28;;;;;;;11.88;7.55;;;;;;;0.26;71.14;92921.50;4948073;28;20479;-76
2023/01/27 10:26:23;;;;;;;12.98;9.23;;;;;;;0.19;71.77;92921.03;4976329;28;20042;-78
2023/01/27 10:28:50;;;;;;;13.50;8.35;;;;;;;0.27;71.34;92912.59;4933727;28;20034;-74
2023/01/27 10:31:29;;;;;;;13.23;7.85;;;;;;;0.41;71.34;92918.00;4974442;28;20046;-78
2023/01/27 10:34:02;;;;;;;17.60;11.20;;;;;;;0.51;70.02;92913.50;4978203;28;20053;-79
2023/01/27 10:36:45;;;;;;;12.32;9.32;;;;;;;0.44;70.46;92907.81;4975375;28;20030;-78
2023/01/27 10:39:27;;;;;;;22.75;14.68;;;;;;;0.57;70.26;92922.09;4956580;28;20930;-78
2023/01/27 10:41:58;;;;;;;22.35;16.30;;;;;;;0.55;69.41;92924.19;4974349;28;20046;-77
2023/01/27 10:44:45;;;;;;;10.18;6.75;;;;;;;0.17;70.54;92895.16;4972579;28;20145;-77
2023/01/27 10:47:26;;;;;;;11.98;7.38;;;;;;;0.23;70.81;92896.69;4976300;28;20034;-76
2023/01/27 10:49:57;;;;;;;13.15;7.80;;;;;;;0.10;71.38;92878.22;4976564;28;20038;-76
2023/01/27 10:52:37;;;;;;;29.35;15.65;;;;;;;0.39;71.03;92915.69;4972084;28;20038;-77
2023/01/27 10:55:14;;;;;;;19.20;15.70;;;;;;;0.47;70.99;92917.72;4972837;28;20061;-77
2023/01/27 10:57:52;;;;;;;14.98;12.05;;;;;;;0.56;71.05;92921.31;4972504;28;20050;-77
2023/01/27 11:00:32;;;;;;;17.67;15.52;;;;;;;0.64;70.40;92915.47;4955562;28;20038;-77
2023/01/27 11:03:08;;;;;;;9.38;8.07;;;;;;;0.63;70.52;92913.94;4969915;28;20053;-78
2023/01/27 11:05:43;;;;;;;11.63;9.05;;;;;;;0.44;70.47;92886.88;4974624;28;20046;-78
2023/01/27 11:08:16;;;;;;;13.07;9.43;;;;;;;0.66;70.53;92916.00;4977926;28;20042;-78
2023/01/27 11:13:32;;;;;;;12.35;10.27;;;;;;;0.76;69.27;92910.69;4977959;28;20045;-78
2023/01/27 11:15:59;;;;;;;11.95;9.98;;;;;;;0.74;69.37;92897.09;4974772;28;20042;-78
2023/01/27 11:18:28;;;;;;;12.75;9.00;;;;;;;0.78;69.95;92911.22;4982462;28;20113;-76
2023/01/27 11:21:29;;;;;;;12.77;10.43;;;;;;;0.82;70.13;92908.03;4964227;28;20515;-77
2023/01/27 11:23:55;;;;;;;11.90;9.93;;;;;;;0.78;70.25;92905.19;4923531;28;20080;-79
2023/01/27 11:26:33;;;;;;;9.35;8.15;;;;;;;0.80;70.14;92900.44;4977600;28;20046;-80
2023/01/27 11:29:23;;;;;;;13.60;11.15;;;;;;;0.82;69.95;92887.09;4980067;28;20196;-80
2023/01/27 11:32:04;;;;;;;10.00;8.40;;;;;;;0.96;68.80;92890.63;4980993;28;20043;-80
2023/01/27 11:34:45;;;;;;;12.07;10.40;;;;;;;0.92;69.32;92887.00;4981394;28;20034;-79
2023/01/27 11:37:24;;;;;;;15.15;12.60;;;;;;;0.97;68.65;92881.72;4983409;28;20332;-79
2023/01/27 11:39:49;;;;;;;14.55;11.05;;;;;;;0.82;68.70;92876.63;4981498;28;20521;-78
2023/01/27 11:42:15;;;;;;;13.38;10.93;;;;;;;0.79;69.65;92888.41;4976657;28;20144;-79
2023/01/27 11:44:42;;;;;;;11.10;8.90;;;;;;;0.85;68.83;92887.31;4975742;28;20049;-79
2023/01/27 11:47:17;;;;;;;9.57;7.68;;;;;;;0.75;68.68;92888.19;4976711;28;20569;-79
2023/01/27 11:49:45;;;;;;;8.68;6.85;;;;;;;0.29;69.78;92863.44;4978385;28;20523;-78
2023/01/27 11:52:18;;;;;;;10.65;8.27;;;;;;;0.45;70.86;92880.56;4976753;28;20435;-79
2023/01/27 11:55:06;;;;;;;12.18;9.15;;;;;;;0.53;70.16;92874.78;4978384;28;20121;-78
2023/01/27 11:57:35;;;;;;;9.38;7.68;;;;;;;0.33;70.46;92864.44;4978936;28;20045;-77
2023/01/27 12:00:33;;;;;;;9.93;7.43;;;;;;;0.57;69.84;92873.16;4970738;28;20037;-78
2023/01/27 12:03:34;;;;;;;11.75;8.45;;;;;;;0.55;69.91;92877.88;4963391;28;20137;-78
2023/01/27 12:06:04;;;;;;;11.30;8.23;;;;;;;0.38;70.42;92876.72;4955138;28;20328;-76
2023/01/27 12:08:44;;;;;;;8.73;7.35;;;;;;;0.37;70.31;92883.78;4980475;28;20105;-78
2023/01/27 12:11:21;;;;;;;23.52;15.57;;;;;;;0.20;70.64;92886.00;4979797;28;20473;-77
2023/01/27 12:13:55;;;;;;;13.18;9.65;;;;;;;0.17;70.90;92870.81;4976971;28;20680;-78
2023/01/27 12:16:23;;;;;;;13.10;10.88;;;;;;;-0.14;71.44;92867.63;4955939;28;20073;-78